createdAt,value
2018-07-11T00:01:17.347Z,2.43
2018-07-11T00:03:44.292Z,2.60
2018-07-11T00:06:11.252Z,2.40
2018-07-11T00:08:38.101Z,2.23
2018-07-11T00:11:05.049Z,2.20
2018-07-11T00:13:32.008Z,2.30
2018-07-11T00:15:58.850Z,2.40
2018-07-11T00:18:25.906Z,2.37
2018-07-11T00:20:52.855Z,2.20
2018-07-11T00:23:21.546Z,3.30
2018-07-11T00:25:49.009Z,2.20
2018-07-11T00:28:15.959Z,3.17
2018-07-11T00:30:42.912Z,3.50
2018-07-11T00:33:09.865Z,2.73
2018-07-11T00:35:36.814Z,2.60
2018-07-11T00:38:03.768Z,2.20
2018-07-11T00:40:31.332Z,2.30
2018-07-11T00:42:58.284Z,2.53
2018-07-11T00:45:25.134Z,2.70
2018-07-11T00:47:51.966Z,2.20
2018-07-11T00:50:18.931Z,2.67
2018-07-11T00:52:45.886Z,2.70
2018-07-11T00:55:13.039Z,2.77
2018-07-11T00:57:39.889Z,3.03
2018-07-11T01:00:06.842Z,2.93
2018-07-11T01:02:33.895Z,2.57
2018-07-11T01:05:00.949Z,2.50
2018-07-11T01:07:27.899Z,2.63
2018-07-11T01:09:54.852Z,2.50
2018-07-11T01:12:21.801Z,2.50
2018-07-11T01:14:48.754Z,2.67
2018-07-11T01:17:15.602Z,2.80
2018-07-11T01:19:42.656Z,2.70
2018-07-11T01:22:09.606Z,3.03
2018-07-11T01:24:36.559Z,3.17
2018-07-11T01:27:03.403Z,2.50
2018-07-11T01:29:30.360Z,2.97
2018-07-11T01:31:57.516Z,2.80
2018-07-11T01:34:24.465Z,2.73
2018-07-11T01:36:52.136Z,2.43
2018-07-11T01:39:19.085Z,2.80
2018-07-11T01:41:46.036Z,2.93
2018-07-11T01:44:13.000Z,2.60
2018-07-11T01:46:39.933Z,2.50
2018-07-11T01:49:06.891Z,2.40
2018-07-11T01:51:34.251Z,2.80
2018-07-11T01:54:01.204Z,3.00
2018-07-11T01:56:28.158Z,2.57
2018-07-11T01:58:55.926Z,2.73
2018-07-11T02:01:22.773Z,3.00
2018-07-11T02:03:50.379Z,2.70
2018-07-11T02:06:17.298Z,3.40
2018-07-11T02:08:44.243Z,2.60
2018-07-11T02:11:11.194Z,2.60
2018-07-11T02:13:38.030Z,2.53
2018-07-11T02:16:04.890Z,3.03
2018-07-11T02:18:31.739Z,2.93
2018-07-11T02:20:58.692Z,3.20
2018-07-11T02:23:25.748Z,2.50
2018-07-11T02:25:52.796Z,3.17
2018-07-11T02:28:19.753Z,3.37
2018-07-11T02:30:46.703Z,3.10
2018-07-11T02:33:14.268Z,3.17
2018-07-11T02:35:41.219Z,3.27
2018-07-11T02:38:08.376Z,3.23
2018-07-11T02:40:35.223Z,3.50
2018-07-11T02:43:02.176Z,2.90
2018-07-11T02:45:29.536Z,3.40
2018-07-11T02:47:56.591Z,3.20
2018-07-11T02:50:23.951Z,3.43
2018-07-11T02:52:50.902Z,3.30
2018-07-11T02:55:18.362Z,3.20
2018-07-11T02:57:45.315Z,3.33
2018-07-11T03:00:12.165Z,3.10
2018-07-11T03:02:39.220Z,3.37
2018-07-11T03:05:06.273Z,3.70
2018-07-11T03:07:33.223Z,3.00
2018-07-11T03:10:00.083Z,2.90
2018-07-11T03:12:26.910Z,3.13
2018-07-11T03:14:53.870Z,3.03
2018-07-11T03:17:20.651Z,2.80
2018-07-11T03:19:47.674Z,3.20
2018-07-11T03:22:14.627Z,3.30
2018-07-11T03:24:41.473Z,2.80
2018-07-11T03:27:08.451Z,3.17
2018-07-11T03:29:35.478Z,3.77
2018-07-11T03:32:02.429Z,2.83
2018-07-11T03:34:29.278Z,3.20
2018-07-11T03:36:56.127Z,2.80
2018-07-11T03:39:23.078Z,2.87
2018-07-11T03:41:50.032Z,2.63
2018-07-11T03:44:16.982Z,2.50
2018-07-11T03:46:43.935Z,2.80
2018-07-11T03:49:11.190Z,2.60
2018-07-11T03:51:38.348Z,2.73
2018-07-11T03:54:05.197Z,2.70
2018-07-11T03:56:32.558Z,2.50
2018-07-11T03:58:59.327Z,2.80
2018-07-11T04:01:26.255Z,2.70
2018-07-11T04:03:53.105Z,2.93
2018-07-11T04:06:20.875Z,3.10
2018-07-11T04:08:47.724Z,2.93
2018-07-11T04:11:15.085Z,2.63
2018-07-11T04:13:41.933Z,2.70
2018-07-11T04:16:08.787Z,3.13
2018-07-11T04:18:35.621Z,3.10
2018-07-11T04:21:02.584Z,2.80
2018-07-11T04:23:30.352Z,2.80
2018-07-11T04:25:57.304Z,2.80
2018-07-11T04:28:25.178Z,2.73
2018-07-11T04:30:52.439Z,2.63
2018-07-11T04:33:19.402Z,2.95
2018-07-11T04:35:46.339Z,2.58
2018-07-11T04:38:13.287Z,2.40
2018-07-11T04:40:40.126Z,2.90
2018-07-11T04:43:07.192Z,2.15
2018-07-11T04:45:34.040Z,2.60
2018-07-11T04:48:00.889Z,2.70
2018-07-11T04:50:27.842Z,2.70
2018-07-11T04:52:54.779Z,3.00
2018-07-11T04:55:21.934Z,2.70
2018-07-11T04:57:48.900Z,2.75
2018-07-11T05:00:15.748Z,2.80
2018-07-11T05:02:42.698Z,2.85
2018-07-11T05:05:10.368Z,3.10
2018-07-11T05:07:37.522Z,2.90
2018-07-11T05:10:04.476Z,2.78
2018-07-11T05:12:31.326Z,2.42
2018-07-11T05:14:58.277Z,2.70
2018-07-11T05:17:25.226Z,2.28
2018-07-11T05:19:52.485Z,2.55
2018-07-11T05:22:19.435Z,2.62
2018-07-11T05:24:46.283Z,2.62
2018-07-11T05:27:13.226Z,2.62
2018-07-11T05:29:40.597Z,2.70
2018-07-11T05:32:07.446Z,2.90
2018-07-11T05:34:34.295Z,2.62
2018-07-11T05:37:01.246Z,2.90
2018-07-11T05:39:28.507Z,3.00
2018-07-11T05:41:55.868Z,2.80
2018-07-11T05:44:22.820Z,2.70
2018-07-11T05:46:49.765Z,2.87
2018-07-11T05:49:16.721Z,3.03
2018-07-11T05:51:43.876Z,3.00
2018-07-11T05:54:10.827Z,3.10
2018-07-11T05:56:37.778Z,3.30
2018-07-11T05:59:05.037Z,3.53
2018-07-11T06:01:32.080Z,3.10
2018-07-11T06:03:58.838Z,3.10
2018-07-11T06:06:25.788Z,3.22
2018-07-11T06:08:53.564Z,3.37
2018-07-11T06:11:20.514Z,3.30
2018-07-11T06:13:47.463Z,3.30
2018-07-11T06:16:14.730Z,3.08
2018-07-11T06:18:41.578Z,3.00
2018-07-11T06:21:08.520Z,2.80
2018-07-11T06:23:35.778Z,3.17
2018-07-11T06:26:03.435Z,3.12
2018-07-11T06:28:30.706Z,3.05
2018-07-11T06:30:57.965Z,3.10
2018-07-11T06:33:24.959Z,3.40
2018-07-11T06:35:52.172Z,3.28
2018-07-11T06:38:19.123Z,3.42
2018-07-11T06:40:45.973Z,3.60
2018-07-11T06:43:13.947Z,3.95
2018-07-11T06:45:41.721Z,4.15
2018-07-11T06:48:08.867Z,3.60
2018-07-11T06:50:35.828Z,3.55
2018-07-11T06:53:03.786Z,3.45
2018-07-11T06:55:30.751Z,4.10
2018-07-11T06:57:57.701Z,4.07
2018-07-11T07:00:24.656Z,4.07
2018-07-11T07:02:51.911Z,3.90
2018-07-11T07:05:18.865Z,3.92
2018-07-11T07:07:45.713Z,3.30
2018-07-11T07:10:13.481Z,2.90
2018-07-11T07:12:40.435Z,2.87
2018-07-11T07:15:07.283Z,2.50
2018-07-11T07:17:34.131Z,2.30
2018-07-11T07:20:00.970Z,2.17
2018-07-11T07:22:27.955Z,2.53
2018-07-11T07:24:57.442Z,2.25
2018-07-11T07:27:24.395Z,2.65
2018-07-11T07:29:51.344Z,2.58
2018-07-11T07:32:18.602Z,2.25
2018-07-11T07:34:46.516Z,2.40
2018-07-11T07:37:13.734Z,2.40
2018-07-11T07:39:40.686Z,2.55
2018-07-11T07:42:07.638Z,2.25
2018-07-11T07:44:35.290Z,2.35
2018-07-11T07:47:02.884Z,2.37
2018-07-11T07:49:30.332Z,2.15
2018-07-11T07:51:57.593Z,2.35
2018-07-11T07:54:24.542Z,2.17
2018-07-11T07:56:51.496Z,2.37
2018-07-11T07:59:18.856Z,2.10
2018-07-11T08:01:46.419Z,2.70
2018-07-11T08:04:13.270Z,2.35
2018-07-11T08:06:40.220Z,2.20
2018-07-11T08:09:06.966Z,2.15
2018-07-11T08:11:34.941Z,2.03
2018-07-11T08:14:02.198Z,2.33
2018-07-11T08:16:29.458Z,1.98
2018-07-11T08:18:56.821Z,2.10
2018-07-11T08:21:23.779Z,1.70
2018-07-11T08:24:13.033Z,2.25
2018-07-11T08:26:52.468Z,1.77
2018-07-11T08:29:19.421Z,1.90
2018-07-11T08:31:46.470Z,1.90
2018-07-11T08:34:14.139Z,2.00
2018-07-11T08:36:41.503Z,1.83
2018-07-11T08:39:08.557Z,1.98
2018-07-11T08:41:36.324Z,2.00
2018-07-11T08:44:04.093Z,2.03
2018-07-11T08:46:31.760Z,1.90
2018-07-11T08:48:58.916Z,2.20
2018-07-11T08:51:26.073Z,2.47
2018-07-11T08:53:53.163Z,1.98
2018-07-11T08:56:20.186Z,2.28
2018-07-11T08:58:47.643Z,1.92
2018-07-11T09:01:14.594Z,2.10
2018-07-11T09:03:41.970Z,2.05
2018-07-11T09:06:08.906Z,1.90
2018-07-11T09:08:36.577Z,1.98
2018-07-11T09:11:03.525Z,2.17
2018-07-11T09:13:30.582Z,2.22
2018-07-11T09:15:57.635Z,1.90
2018-07-11T09:18:24.483Z,1.92
2018-07-11T09:20:51.537Z,2.42
2018-07-11T09:23:18.489Z,2.05
2018-07-11T09:25:47.683Z,1.73
2018-07-11T09:28:14.745Z,1.90
2018-07-11T09:30:41.801Z,1.80
2018-07-11T09:33:08.747Z,1.45
2018-07-11T09:35:35.597Z,2.00
2018-07-11T09:38:02.549Z,2.00
2018-07-11T09:40:29.707Z,1.85
2018-07-11T09:42:56.761Z,2.17
2018-07-11T09:45:23.829Z,2.00
2018-07-11T09:47:50.970Z,2.10
2018-07-11T09:50:18.126Z,2.00
2018-07-11T09:52:45.896Z,2.28
2018-07-11T09:55:12.743Z,2.42
2018-07-11T09:57:39.943Z,1.98
2018-07-11T10:00:06.952Z,2.22
2018-07-11T10:02:33.801Z,2.08
2018-07-11T10:05:01.164Z,1.90
2018-07-11T10:07:28.525Z,1.73
2018-07-11T10:09:55.473Z,1.50
2018-07-11T10:12:22.324Z,1.85
2018-07-11T10:14:50.106Z,1.80
2018-07-11T10:17:16.931Z,1.87
2018-07-11T10:19:43.929Z,1.60
2018-07-11T10:22:11.045Z,2.22
2018-07-11T10:24:37.857Z,1.90
2018-07-11T10:27:05.976Z,2.00
2018-07-11T10:29:32.769Z,1.92
2018-07-11T10:31:59.678Z,1.85
2018-07-11T10:34:27.137Z,1.90
2018-07-11T10:36:55.216Z,1.40
2018-07-11T10:39:22.058Z,1.90
2018-07-11T10:41:48.911Z,2.08
2018-07-11T10:44:16.070Z,1.92
2018-07-11T10:46:42.813Z,1.52
2018-07-11T10:49:09.766Z,2.87
2018-07-11T10:51:37.129Z,1.73
2018-07-11T10:54:04.078Z,3.87
2018-07-11T10:56:31.439Z,1.70
2018-07-11T10:58:58.494Z,1.80
2018-07-11T11:01:25.470Z,1.98
2018-07-11T11:03:52.288Z,2.22
2018-07-11T11:06:20.171Z,1.83
2018-07-11T11:08:47.691Z,1.90
2018-07-11T11:11:14.580Z,1.90
2018-07-11T11:13:41.428Z,1.95
2018-07-11T11:16:10.019Z,1.77
2018-07-11T11:18:36.868Z,2.10
2018-07-11T11:21:04.434Z,2.15
2018-07-11T11:23:31.794Z,1.77
2018-07-11T11:25:58.641Z,2.20
2018-07-11T11:28:26.002Z,2.05
2018-07-11T11:30:53.362Z,1.70
2018-07-11T11:33:20.218Z,2.25
2018-07-11T11:35:47.289Z,1.70
2018-07-11T11:38:14.229Z,1.83
2018-07-11T11:40:41.068Z,2.12
2018-07-11T11:43:09.044Z,1.83
2018-07-11T11:45:35.989Z,1.80
2018-07-11T11:48:02.841Z,2.05
2018-07-11T11:50:29.794Z,1.85
2018-07-11T11:52:56.945Z,1.60
2018-07-11T11:55:23.899Z,2.00
2018-07-11T11:57:50.857Z,1.70
2018-07-11T12:00:18.210Z,1.85
2018-07-11T12:02:45.267Z,2.15
2018-07-11T12:05:12.626Z,2.08
2018-07-11T12:07:39.817Z,1.95
2018-07-11T12:10:07.245Z,2.10
2018-07-11T12:12:34.195Z,2.28
2018-07-11T12:15:01.250Z,2.10
2018-07-11T12:17:29.126Z,2.17
2018-07-11T12:19:56.283Z,3.33
2018-07-11T12:22:23.128Z,2.08
2018-07-11T12:24:50.794Z,2.00
2018-07-11T12:27:17.747Z,1.83
2018-07-11T12:29:44.700Z,1.90
2018-07-11T12:32:12.056Z,2.00
2018-07-11T12:34:39.213Z,2.12
2018-07-11T12:37:06.369Z,2.30
2018-07-11T12:39:34.655Z,2.00
2018-07-11T12:42:01.810Z,2.30
2018-07-11T12:44:29.086Z,1.87
2018-07-11T12:46:56.019Z,2.65
2018-07-11T12:49:22.938Z,2.20
2018-07-11T12:51:50.841Z,2.03
2018-07-11T12:54:18.203Z,2.33
2018-07-11T12:56:45.256Z,1.70
2018-07-11T12:59:12.413Z,2.60
2018-07-11T13:01:39.772Z,2.67
2018-07-11T13:04:07.134Z,2.47
2018-07-11T13:06:34.700Z,2.90
2018-07-11T13:09:01.856Z,2.30
2018-07-11T13:11:29.109Z,4.03
2018-07-11T13:13:56.576Z,1.92
2018-07-11T13:16:23.761Z,2.10
2018-07-11T13:18:50.893Z,2.50
2018-07-11T13:21:18.134Z,2.60
2018-07-11T13:23:44.983Z,3.65
2018-07-11T13:26:12.995Z,2.25
2018-07-11T13:28:40.331Z,2.30
2018-07-11T13:31:07.191Z,1.87
2018-07-11T13:33:34.950Z,2.10
2018-07-11T13:36:02.519Z,2.17
2018-07-11T13:38:29.568Z,2.17
2018-07-11T13:40:57.223Z,1.98
2018-07-11T13:43:24.187Z,2.42
2018-07-11T13:45:51.240Z,2.40
2018-07-11T13:48:18.602Z,2.20
2018-07-11T13:50:45.553Z,2.22
2018-07-11T13:53:12.507Z,2.20
2018-07-11T13:55:39.763Z,2.22
2018-07-11T13:58:07.418Z,2.20
2018-07-11T14:00:34.484Z,3.85
2018-07-11T14:03:01.591Z,1.95
2018-07-11T14:05:29.196Z,2.35
2018-07-11T14:07:56.320Z,2.22
2018-07-11T14:10:24.543Z,2.20
2018-07-11T14:12:51.878Z,2.00
2018-07-11T14:15:19.364Z,2.20
2018-07-11T14:17:46.215Z,2.00
2018-07-11T14:20:13.882Z,1.98
2018-07-11T14:22:40.832Z,2.00
2018-07-11T14:25:07.683Z,2.12
2018-07-11T14:27:35.196Z,2.15
2018-07-11T14:30:02.710Z,2.08
2018-07-11T14:32:30.787Z,2.12
2018-07-11T14:34:57.740Z,2.20
2018-07-11T14:37:24.791Z,2.00
2018-07-11T14:39:51.875Z,2.28
2018-07-11T14:42:18.670Z,2.42
2018-07-11T14:44:45.556Z,2.80
2018-07-11T14:47:12.906Z,3.20
2018-07-11T14:49:39.859Z,2.30
2018-07-11T14:52:06.723Z,1.90
2018-07-11T14:54:33.658Z,2.10
2018-07-11T14:57:00.508Z,1.87
2018-07-11T14:59:27.456Z,2.00
2018-07-11T15:01:54.304Z,3.33
2018-07-11T15:04:21.257Z,1.87
2018-07-11T15:06:48.311Z,2.17
2018-07-11T15:09:15.861Z,1.95
2018-07-11T15:11:42.623Z,1.95
2018-07-11T15:14:09.461Z,2.08
2018-07-11T15:16:36.322Z,1.55
2018-07-11T15:19:03.684Z,1.80
2018-07-11T15:21:31.452Z,3.05
2018-07-11T15:23:58.303Z,2.28
2018-07-11T15:26:25.666Z,1.83
2018-07-11T15:28:59.571Z,2.10
2018-07-11T15:31:26.419Z,1.92
2018-07-11T15:33:53.265Z,1.98
2018-07-11T15:36:20.631Z,1.73
2018-07-11T15:38:47.682Z,2.12
2018-07-11T15:41:14.946Z,2.00
2018-07-11T15:43:41.792Z,2.20
2018-07-11T15:46:08.742Z,1.52
2018-07-11T15:48:35.826Z,1.75
2018-07-11T15:51:03.728Z,2.10
2018-07-11T15:53:30.627Z,2.00
2018-07-11T15:55:57.572Z,1.95
2018-07-11T15:58:24.412Z,1.87
2018-07-11T16:00:51.888Z,1.95
2018-07-11T16:03:19.236Z,2.20
2018-07-11T16:05:47.023Z,2.20
2018-07-11T16:08:13.862Z,2.10
2018-07-11T16:10:40.813Z,2.03
2018-07-11T16:13:07.766Z,2.10
2018-07-11T16:15:35.022Z,2.20
2018-07-11T16:18:02.277Z,2.33
2018-07-11T16:20:29.132Z,2.15
2018-07-11T16:22:56.387Z,2.28
2018-07-11T16:25:23.748Z,1.80
2018-07-11T16:27:51.112Z,2.25
2018-07-11T16:30:18.064Z,3.45
2018-07-11T16:32:45.423Z,2.10
2018-07-11T16:35:12.682Z,2.30
2018-07-11T16:37:39.529Z,2.45
2018-07-11T16:40:06.789Z,2.58
2018-07-11T16:42:35.274Z,2.53
2018-07-11T16:45:06.843Z,2.70
2018-07-11T16:47:33.885Z,2.50
2018-07-11T16:50:00.938Z,2.42
2018-07-11T16:52:28.127Z,2.87
2018-07-11T16:54:55.248Z,2.53
2018-07-11T16:57:22.510Z,2.80
2018-07-11T16:59:49.351Z,2.45
2018-07-11T17:02:16.307Z,2.58
2018-07-11T17:04:43.771Z,2.70
2018-07-11T17:07:11.017Z,2.53
2018-07-11T17:09:37.873Z,2.60
2018-07-11T17:12:04.726Z,2.83
2018-07-11T17:14:31.783Z,2.80
2018-07-11T17:16:58.733Z,2.90
2018-07-11T17:19:25.585Z,2.67
2018-07-11T17:21:52.634Z,2.60
2018-07-11T17:24:20.816Z,2.87
2018-07-11T17:26:48.373Z,2.70
2018-07-11T17:29:15.228Z,2.50
2018-07-11T17:31:42.179Z,2.80
2018-07-11T17:34:09.951Z,2.80
2018-07-11T17:36:36.901Z,2.50
2018-07-11T17:39:04.757Z,2.70
2018-07-11T17:41:33.054Z,2.70
2018-07-11T17:44:00.927Z,3.00
2018-07-11T17:46:28.288Z,2.43
2018-07-11T17:48:55.162Z,2.97
2018-07-11T17:51:22.077Z,2.70
2018-07-11T17:53:48.938Z,2.40
2018-07-11T17:56:15.907Z,4.20
2018-07-11T17:58:43.054Z,2.90
2018-07-11T18:01:10.102Z,2.90
2018-07-11T18:03:37.154Z,2.90
2018-07-11T18:06:04.513Z,2.80
2018-07-11T18:08:31.364Z,2.83
2018-07-11T18:10:58.308Z,2.90
2018-07-11T18:13:25.429Z,3.00
2018-07-11T18:15:52.420Z,3.20
2018-07-11T18:18:19.358Z,3.10
2018-07-11T18:20:46.325Z,3.70
2018-07-11T18:23:13.579Z,3.33
2018-07-11T18:25:40.942Z,3.27
2018-07-11T18:28:10.264Z,3.60
2018-07-11T18:30:37.405Z,2.97
2018-07-11T18:33:04.355Z,3.30
2018-07-11T18:35:31.305Z,2.80
2018-07-11T18:37:58.562Z,3.03
2018-07-11T18:40:25.515Z,3.20
2018-07-11T18:42:52.470Z,3.20
2018-07-11T18:45:19.318Z,3.00
2018-07-11T18:47:46.272Z,2.93
2018-07-11T18:50:13.335Z,3.37
2018-07-11T18:52:40.263Z,3.10
2018-07-11T18:55:07.224Z,3.10
2018-07-11T18:57:34.179Z,2.90
2018-07-11T19:00:01.128Z,3.27
2018-07-11T19:02:28.079Z,3.13
2018-07-11T19:04:54.913Z,3.13
2018-07-11T19:07:21.983Z,3.50
2018-07-11T19:09:48.933Z,3.13
2018-07-11T19:12:15.885Z,3.13
2018-07-11T19:14:42.939Z,3.17
2018-07-11T19:17:09.779Z,3.00
2018-07-11T19:19:36.741Z,3.13
2018-07-11T19:22:03.674Z,3.00
2018-07-11T19:24:30.639Z,3.07
2018-07-11T19:26:57.593Z,3.37
2018-07-11T19:29:24.536Z,3.10
2018-07-11T19:31:51.392Z,3.57
2018-07-11T19:34:18.344Z,3.17
2018-07-11T19:36:45.476Z,3.57
2018-07-11T19:39:12.349Z,3.43
2018-07-11T19:41:39.810Z,3.27
2018-07-11T19:44:06.663Z,3.30
2018-07-11T19:46:33.508Z,3.60
2018-07-11T19:49:00.562Z,3.30
2018-07-11T19:51:28.029Z,3.20
2018-07-11T19:53:55.900Z,3.60
2018-07-11T19:56:22.796Z,3.40
2018-07-11T19:58:51.438Z,3.60
2018-07-11T20:01:18.391Z,3.40
2018-07-11T20:03:45.240Z,3.90
2018-07-11T20:06:12.193Z,3.70
2018-07-11T20:08:39.262Z,3.80
2018-07-11T20:11:06.911Z,3.50
2018-07-11T20:13:33.862Z,3.20
2018-07-11T20:16:00.816Z,3.77
2018-07-11T20:18:28.210Z,4.37
2018-07-11T20:20:55.125Z,4.00
2018-07-11T20:23:22.079Z,3.67
2018-07-11T20:25:49.133Z,6.00
2018-07-11T20:28:16.081Z,3.80
2018-07-11T20:30:43.031Z,3.37
2018-07-11T20:33:09.881Z,3.77
2018-07-11T20:35:36.731Z,4.07
2018-07-11T20:38:04.376Z,3.80
2018-07-11T20:40:31.351Z,3.90
2018-07-11T20:42:58.199Z,4.23
2018-07-11T20:45:25.048Z,4.17
2018-07-11T20:47:52.004Z,4.10
2018-07-11T20:50:18.849Z,3.57
2018-07-11T20:52:46.517Z,4.23
2018-07-11T20:55:13.273Z,3.53
2018-07-11T20:57:40.209Z,4.00
2018-07-11T21:03:14.538Z,3.90
2018-07-11T21:05:41.593Z,4.13
2018-07-11T21:08:08.441Z,4.40
2018-07-11T21:10:35.494Z,4.47
2018-07-11T21:13:02.551Z,4.07
2018-07-11T21:15:29.501Z,4.10
2018-07-11T21:17:56.452Z,4.33
2018-07-11T21:20:23.290Z,4.40
2018-07-11T21:22:50.155Z,4.50
2018-07-11T21:25:17.820Z,4.40
2018-07-11T21:27:45.780Z,4.97
2018-07-11T21:30:13.255Z,4.83
2018-07-11T21:32:40.208Z,4.20
2018-07-11T21:35:08.184Z,5.00
2018-07-11T21:37:34.979Z,4.30
2018-07-11T21:40:02.599Z,4.40
2018-07-11T21:42:29.548Z,4.23
2018-07-11T21:44:56.501Z,5.00
2018-07-11T21:47:23.348Z,4.23
2018-07-11T21:49:51.016Z,4.73
2018-07-11T21:52:17.975Z,5.73
2018-07-11T21:54:44.917Z,4.47
2018-07-11T21:57:12.484Z,4.30
2018-07-11T21:59:39.334Z,4.93
2018-07-11T22:02:07.312Z,4.30
2018-07-11T22:04:34.888Z,4.37
2018-07-11T22:07:01.927Z,4.10
2018-07-11T22:09:28.879Z,4.50
2018-07-11T22:11:57.261Z,4.40
2018-07-11T22:14:24.005Z,4.27
2018-07-11T22:16:50.856Z,3.93
2018-07-11T22:19:18.046Z,4.73
2018-07-11T22:21:44.526Z,4.20
2018-07-11T22:24:11.915Z,5.23
2018-07-11T22:26:38.967Z,4.43
2018-07-11T22:29:05.614Z,4.70
2018-07-11T22:31:32.666Z,4.50
2018-07-11T22:33:59.619Z,4.40
2018-07-11T22:36:26.262Z,4.47
2018-07-11T22:38:53.009Z,5.57
2018-07-11T22:41:20.062Z,4.80
2018-07-11T22:43:46.612Z,5.03
2018-07-11T22:46:13.249Z,5.23
2018-07-11T22:48:39.892Z,4.70
2018-07-11T22:51:06.435Z,4.57
2018-07-11T22:53:33.080Z,4.60
2018-07-11T22:55:59.622Z,4.90
2018-07-11T22:58:26.268Z,4.50
2018-07-11T23:00:52.808Z,5.17
2018-07-11T23:03:19.350Z,5.37
2018-07-11T23:05:45.996Z,5.33
2018-07-11T23:08:13.363Z,4.83
2018-07-11T23:10:40.104Z,4.70
2018-07-11T23:13:07.362Z,5.50
2018-07-11T23:15:33.898Z,5.23
2018-07-11T23:18:00.444Z,5.40
2018-07-11T23:20:27.121Z,5.10
2018-07-11T23:22:54.247Z,4.93
2018-07-11T23:25:20.890Z,4.83
2018-07-11T23:27:47.534Z,4.87
2018-07-11T23:30:14.692Z,5.20
2018-07-11T23:32:41.335Z,4.97
2018-07-11T23:35:07.875Z,5.33
2018-07-11T23:37:34.423Z,5.60
2018-07-11T23:40:01.269Z,5.30
2018-07-11T23:42:27.913Z,4.67
2018-07-11T23:44:54.559Z,5.17
2018-07-11T23:47:21.100Z,5.20
2018-07-11T23:49:47.751Z,4.87
2018-07-11T23:52:14.388Z,4.70
2018-07-11T23:54:41.036Z,4.90
2018-07-11T23:57:07.676Z,5.13
2018-07-11T23:59:34.202Z,5.00
